Time;durP1;ratioP1;P1;durP2;ratioP2;P2;SDS_P1;SDS_P2;PMS_P1;PMS_P2;Temp;Humidity;BMP_temperature;BMP_pressure;BME280_temperature;BME280_humidity;BME280_pressure;Samples;Min_cycle;Max_cycle;Signal;HPM_P1;HPM_P2
2021/06/21 05:02:21;;;;;;;2.10;1.88;;;;;;;19.38;84.63;94520.25;5242858;23;19923;-75
2021/06/21 05:04:47;;;;;;;3.42;1.70;;;;;;;21.15;82.33;94523.75;4929807;29;20513;-76
2021/06/21 05:07:12;;;;;;;3.05;1.60;;;;;;;22.01;76.59;94520.13;4931629;29;20047;-77
2021/06/21 05:09:38;;;;;;;1.48;1.35;;;;;;;22.54;71.06;94513.09;4915355;29;20412;-78
2021/06/21 05:12:03;;;;;;;1.90;1.23;;;;;;;23.20;71.59;94521.34;4915783;29;20032;-77
2021/06/21 05:14:29;;;;;;;1.30;1.05;;;;;;;24.10;70.24;94526.84;4931664;29;20035;-78
2021/06/21 05:16:55;;;;;;;1.40;1.30;;;;;;;23.80;67.19;94531.31;4930506;29;20464;-77
2021/06/21 05:19:21;;;;;;;1.40;1.27;;;;;;;23.06;70.71;94524.47;4915201;29;20095;-76
2021/06/21 05:21:46;;;;;;;1.17;1.08;;;;;;;23.72;71.30;94526.53;4914462;29;20024;-81
2021/06/21 05:24:11;;;;;;;1.38;1.27;;;;;;;23.22;68.25;94519.22;4915551;29;20024;-79
2021/06/21 05:26:37;;;;;;;1.58;1.25;;;;;;;23.63;67.52;94520.19;4914424;29;20119;-78
2021/06/21 05:29:02;;;;;;;2.15;1.40;;;;;;;24.69;66.94;94528.13;4931452;29;20032;-76
2021/06/21 05:31:28;;;;;;;1.50;1.33;;;;;;;25.25;62.77;94526.91;4930233;29;20110;-76
2021/06/21 05:33:53;;;;;;;4.22;1.67;;;;;;;24.51;64.61;94529.47;4928354;29;20116;-76
2021/06/21 05:36:19;;;;;;;3.33;1.58;;;;;;;24.46;65.44;94522.34;4930762;29;20028;-77
2021/06/21 05:38:44;;;;;;;1.30;1.20;;;;;;;24.83;65.36;94519.38;4929596;29;20040;-76
2021/06/21 05:41:10;;;;;;;1.40;1.30;;;;;;;25.55;62.56;94526.00;4914183;29;20062;-75
2021/06/21 05:43:35;;;;;;;1.48;1.20;;;;;;;25.70;61.85;94525.88;4909623;29;20111;-75
2021/06/21 05:46:01;;;;;;;1.58;1.38;;;;;;;25.67;62.90;94521.94;4926465;29;20091;-74
2021/06/21 05:48:27;;;;;;;1.40;1.30;;;;;;;25.30;64.43;94518.91;4918696;29;20032;-76
2021/06/21 05:50:52;;;;;;;3.63;1.40;;;;;;;25.45;62.03;94523.34;4919396;29;20032;-75
2021/06/21 05:53:18;;;;;;;2.92;1.17;;;;;;;25.34;62.91;94529.75;4905123;29;20034;-76
2021/06/21 05:55:44;;;;;;;1.63;1.52;;;;;;;26.20;60.56;94522.09;4869877;29;20035;-74
2021/06/21 05:58:09;;;;;;;1.10;1.00;;;;;;;26.61;61.99;94527.84;4925265;29;20030;-75
2021/06/21 06:00:34;;;;;;;1.55;1.23;;;;;;;27.57;59.57;94519.59;4921818;29;20031;-75
2021/06/21 06:03:00;;;;;;;3.83;1.00;;;;;;;27.70;57.75;94518.88;4909224;29;20408;-75
2021/06/21 06:05:25;;;;;;;1.30;0.98;;;;;;;28.57;56.59;94519.13;4928919;29;20489;-74
2021/06/21 06:07:51;;;;;;;1.02;1.00;;;;;;;28.58;54.98;94515.38;4915184;29;20039;-75
2021/06/21 06:10:17;;;;;;;0.85;0.80;;;;;;;27.74;56.50;94514.56;4929595;29;20076;-75
2021/06/21 06:12:42;;;;;;;1.20;0.93;;;;;;;28.82;53.72;94509.91;4930209;29;20059;-75
2021/06/21 06:15:08;;;;;;;0.82;0.80;;;;;;;28.93;54.27;94518.50;4913024;29;20115;-75
2021/06/21 06:17:34;;;;;;;1.13;0.75;;;;;;;27.68;54.46;94509.59;4928347;29;20054;-74
2021/06/21 06:19:59;;;;;;;2.08;0.80;;;;;;;27.32;53.19;94495.16;4930038;29;20681;-75
2021/06/21 06:22:25;;;;;;;1.63;0.88;;;;;;;28.25;54.80;94513.81;4912893;29;20035;-75
2021/06/21 06:24:50;;;;;;;1.15;0.80;;;;;;;28.47;51.68;94505.97;4910120;29;20032;-75
2021/06/21 06:27:16;;;;;;;1.08;1.02;;;;;;;28.00;54.47;94520.28;4912849;29;20020;-74
2021/06/21 06:29:41;;;;;;;1.27;1.17;;;;;;;26.76;54.87;94518.91;4913526;29;20032;-74
2021/06/21 06:32:07;;;;;;;1.00;1.00;;;;;;;27.92;54.12;94520.16;4929444;29;20035;-75
2021/06/21 06:34:32;;;;;;;1.10;1.00;;;;;;;27.95;55.53;94514.25;4928747;29;20055;-75
2021/06/21 06:36:58;;;;;;;1.23;1.13;;;;;;;27.50;55.63;94515.69;4930276;29;20039;-74
2021/06/21 06:39:23;;;;;;;1.23;1.10;;;;;;;27.55;56.36;94508.44;4927754;29;20111;-75
2021/06/21 06:41:49;;;;;;;1.38;1.23;;;;;;;27.61;56.02;94514.50;4914458;29;20028;-76
2021/06/21 06:44:14;;;;;;;1.42;1.33;;;;;;;28.33;54.72;94520.34;4896507;29;20024;-75
2021/06/21 06:46:40;;;;;;;1.23;1.13;;;;;;;28.01;54.98;94513.09;4929674;29;20036;-74
2021/06/21 06:49:05;;;;;;;5.75;1.45;;;;;;;28.32;56.83;94516.88;4911888;29;20118;-74
2021/06/21 06:51:53;;;;;;;1.83;1.52;;;;;;;28.48;53.73;94520.88;4927326;29;20035;-74
2021/06/21 06:57:04;;;;;;;1.45;1.35;;;;;;;28.54;54.64;94513.59;4927132;29;20035;-75
2021/06/21 06:59:34;;;;;;;1.90;1.80;;;;;;;28.29;54.95;94511.38;4927750;29;20027;-75
2021/06/21 07:02:01;;;;;;;2.17;1.58;;;;;;;29.10;52.97;94508.81;4928004;29;20040;-75
2021/06/21 07:04:26;;;;;;;2.00;1.40;;;;;;;28.61;54.33;94514.78;4928532;29;20087;-74
2021/06/21 07:06:52;;;;;;;2.00;1.77;;;;;;;29.76;50.13;94510.91;4913022;29;20023;-74
2021/06/21 07:09:17;;;;;;;2.13;1.58;;;;;;;30.56;51.10;94512.81;4900763;29;20032;-74
2021/06/21 07:11:43;;;;;;;2.10;1.88;;;;;;;32.74;43.31;94505.31;4924306;29;20458;-75
2021/06/21 07:14:08;;;;;;;2.10;1.90;;;;;;;39.84;34.34;94505.72;4927805;29;20020;-74
2021/06/21 07:16:34;;;;;;;2.53;2.10;;;;;;;43.45;27.70;94519.22;4929712;29;20039;-79
2021/06/21 07:19:00;;;;;;;3.80;2.20;;;;;;;47.08;23.56;94518.59;4927607;29;20061;-77
2021/06/21 07:21:25;;;;;;;2.53;2.13;;;;;;;50.15;21.07;94518.19;4929433;29;20046;-74
2021/06/21 07:23:51;;;;;;;2.60;2.35;;;;;;;52.15;20.00;94517.94;4930136;29;20024;-75
2021/06/21 07:26:16;;;;;;;4.82;2.38;;;;;;;51.15;19.54;94514.13;4929060;29;20413;-75
2021/06/21 07:28:42;;;;;;;2.10;1.90;;;;;;;47.29;22.16;94508.50;4928939;29;20384;-76
2021/06/21 07:31:07;;;;;;;2.42;2.20;;;;;;;45.48;23.44;94499.66;4927507;29;20553;-74
2021/06/21 07:33:33;;;;;;;2.30;2.10;;;;;;;36.74;34.38;94497.44;4928814;29;20032;-75
2021/06/21 07:35:58;;;;;;;1.95;1.60;;;;;;;31.59;44.02;94497.16;4927013;29;20378;-75
2021/06/21 07:38:24;;;;;;;2.20;2.00;;;;;;;29.56;48.61;94500.69;4930650;29;20588;-75
2021/06/21 07:40:49;;;;;;;1.48;1.38;;;;;;;28.53;51.56;94504.81;4927005;29;20100;-74
2021/06/21 07:43:15;;;;;;;4.70;1.50;;;;;;;28.75;50.63;94507.63;4928227;29;20035;-75
2021/06/21 07:45:42;;;;;;;1.95;1.60;;;;;;;29.22;51.11;94498.44;4929411;29;20035;-73
2021/06/21 07:48:08;;;;;;;1.30;1.20;;;;;;;29.52;50.25;94504.25;4927748;29;20494;-75
2021/06/21 07:50:33;;;;;;;3.33;1.40;;;;;;;29.18;51.19;94507.34;4912445;29;20087;-75
2021/06/21 07:53:01;;;;;;;1.35;1.25;;;;;;;29.03;52.17;94503.09;4927458;29;20035;-74
2021/06/21 07:55:27;;;;;;;1.42;1.30;;;;;;;28.20;52.23;94503.22;4897711;29;20118;-76
2021/06/21 07:57:55;;;;;;;1.52;1.40;;;;;;;28.96;53.30;94502.69;4927850;29;20076;-75
2021/06/21 08:00:23;;;;;;;2.83;1.38;;;;;;;29.26;50.65;94504.00;4928966;29;20032;-75
2021/06/21 08:02:48;;;;;;;2.08;1.48;;;;;;;29.43;51.43;94504.19;4912894;29;20949;-76
2021/06/21 08:05:14;;;;;;;2.00;1.80;;;;;;;27.79;52.58;94491.59;4929746;29;20027;-74
2021/06/21 08:07:39;;;;;;;1.92;1.70;;;;;;;28.63;52.96;94493.16;4914241;29;20035;-72
2021/06/21 08:10:05;;;;;;;1.70;1.52;;;;;;;29.36;53.62;94503.00;4914796;29;20024;-72
2021/06/21 08:12:31;;;;;;;2.97;1.50;;;;;;;28.93;52.12;94505.94;4917017;29;20039;-75
2021/06/21 08:14:56;;;;;;;1.75;1.65;;;;;;;28.90;53.10;94503.09;4899274;29;20473;-72
2021/06/21 08:17:22;;;;;;;1.67;1.58;;;;;;;28.93;51.77;94507.84;4932886;29;20035;-75
2021/06/21 08:19:47;;;;;;;1.70;1.60;;;;;;;29.23;53.04;94509.91;4915016;29;20349;-75
2021/06/21 08:22:13;;;;;;;2.17;1.45;;;;;;;29.24;52.84;94504.31;4932147;29;20117;-79
2021/06/21 08:24:41;;;;;;;2.33;1.83;;;;;;;29.44;54.24;94503.09;4900277;29;20482;-75
2021/06/21 08:27:07;;;;;;;2.42;1.40;;;;;;;29.62;52.33;94512.03;4931393;29;20564;-71
2021/06/21 08:29:32;;;;;;;2.10;1.98;;;;;;;29.83;52.35;94504.41;4916929;29;20024;-81
2021/06/21 08:31:58;;;;;;;1.70;1.55;;;;;;;29.74;53.47;94507.75;4925118;29;20111;-76
2021/06/21 08:34:23;;;;;;;2.83;1.70;;;;;;;29.20;52.49;94507.81;4915988;29;20501;-79
2021/06/21 08:36:49;;;;;;;1.70;1.50;;;;;;;28.97;54.05;94500.81;4914463;29;20127;-77
2021/06/21 08:39:14;;;;;;;1.88;1.77;;;;;;;29.34;54.56;94505.97;4899861;29;20035;-74
2021/06/21 08:41:40;;;;;;;3.30;2.13;;;;;;;29.28;53.01;94509.84;4931365;29;20056;-76
2021/06/21 08:44:05;;;;;;;2.35;1.80;;;;;;;29.56;54.29;94506.03;4926478;29;20493;-74
2021/06/21 08:46:31;;;;;;;2.15;1.63;;;;;;;29.99;54.26;94502.97;4932375;29;20501;-73
2021/06/21 08:48:56;;;;;;;1.70;1.60;;;;;;;30.20;53.68;94499.50;4930259;29;20043;-75
2021/06/21 08:51:22;;;;;;;1.63;1.52;;;;;;;29.60;53.21;94496.34;4916288;29;20500;-76
2021/06/21 08:53:47;;;;;;;1.83;1.65;;;;;;;29.66;54.07;94494.34;4911971;29;20032;-77
2021/06/21 08:56:13;;;;;;;1.98;1.77;;;;;;;28.89;53.60;94502.31;4914878;29;20036;-77
2021/06/21 08:58:40;;;;;;;1.50;1.40;;;;;;;28.92;56.04;94500.91;4925706;29;20447;-73
2021/06/21 09:01:06;;;;;;;1.77;1.50;;;;;;;29.46;55.41;94503.56;4909800;29;20091;-77
2021/06/21 09:03:33;;;;;;;2.50;1.70;;;;;;;28.73;53.35;94499.13;4906447;29;20036;-83
2021/06/21 09:05:58;;;;;;;2.88;1.50;;;;;;;29.48;52.55;94497.91;4906827;29;20024;-80
2021/06/21 09:08:24;;;;;;;1.67;1.58;;;;;;;30.16;52.85;94497.72;4895162;29;20478;-76
2021/06/21 09:10:50;;;;;;;2.55;1.60;;;;;;;30.72;54.44;94489.91;4924526;29;20046;-76
2021/06/21 09:13:17;;;;;;;1.52;1.42;;;;;;;30.37;50.41;94496.16;4928062;29;20021;-74
2021/06/21 09:15:43;;;;;;;2.80;1.75;;;;;;;30.40;49.21;94500.13;4925463;29;20163;-78
2021/06/21 09:18:37;;;;;;;1.48;1.33;;;;;;;29.85;52.21;94497.66;4927970;29;20511;-73
2021/06/21 09:21:28;;;;;;;1.65;1.50;;;;;;;30.57;50.75;94490.28;4928500;29;20031;-75
2021/06/21 09:23:57;;;;;;;1.52;1.40;;;;;;;30.14;51.14;94482.00;4928432;29;20430;-75
2021/06/21 09:26:30;;;;;;;3.97;1.60;;;;;;;30.04;53.04;94489.47;4915476;29;20091;-74
2021/06/21 09:28:57;;;;;;;1.60;1.50;;;;;;;29.74;50.56;94489.06;4929904;29;20028;-76
2021/06/21 09:31:23;;;;;;;1.60;1.50;;;;;;;29.56;52.57;94497.22;4915199;29;20023;-75
2021/06/21 09:33:48;;;;;;;1.45;1.35;;;;;;;28.92;52.50;94501.72;4930694;29;20107;-76
2021/06/21 09:36:30;;;;;;;3.38;1.80;;;;;;;28.97;54.23;94493.59;4914134;29;20031;-77
2021/06/21 09:39:19;;;;;;;2.03;1.63;;;;;;;29.28;53.31;94501.84;4914009;29;20454;-76
2021/06/21 09:42:01;;;;;;;1.70;1.60;;;;;;;28.96;52.46;94504.59;4913832;29;20031;-76
2021/06/21 09:44:33;;;;;;;1.52;1.42;;;;;;;28.56;55.05;94504.22;4930807;29;20283;-74
2021/06/21 09:47:23;;;;;;;1.80;1.70;;;;;;;28.47;56.71;94505.97;4929627;29;20024;-76
2021/06/21 09:50:01;;;;;;;1.42;1.33;;;;;;;28.02;56.19;94504.81;4930602;29;20040;-76
2021/06/21 09:52:48;;;;;;;1.75;1.63;;;;;;;27.88;56.02;94506.63;4926396;29;20043;-76
2021/06/21 09:55:13;;;;;;;2.10;1.60;;;;;;;28.30;54.02;94497.72;4925862;29;20109;-75
2021/06/21 09:57:39;;;;;;;2.75;1.50;;;;;;;29.19;54.71;94496.34;4930718;29;20028;-75
2021/06/21 10:00:06;;;;;;;1.55;1.45;;;;;;;29.51;52.34;94487.44;4914363;29;20035;-75
2021/06/21 10:02:32;;;;;;;1.88;1.40;;;;;;;28.93;50.52;94481.94;4897454;29;20078;-74
2021/06/21 10:04:57;;;;;;;1.77;1.42;;;;;;;29.44;51.40;94487.06;4915121;29;20036;-74
2021/06/21 10:07:36;;;;;;;1.67;1.50;;;;;;;28.48;53.28;94480.88;4929968;29;20103;-80
2021/06/21 10:10:10;;;;;;;1.67;1.50;;;;;;;28.84;55.71;94474.91;4930219;29;20051;-76
2021/06/21 10:12:35;;;;;;;1.90;1.65;;;;;;;28.15;57.06;94477.47;4914736;29;20031;-77
2021/06/21 10:15:01;;;;;;;1.60;1.50;;;;;;;27.85;58.00;94487.78;4913579;29;20476;-74
2021/06/21 10:17:27;;;;;;;1.50;1.40;;;;;;;28.17;54.95;94475.31;4931617;29;20038;-75
2021/06/21 10:19:53;;;;;;;3.20;1.98;;;;;;;27.77;56.20;94482.00;4893550;29;20183;-73
2021/06/21 10:22:21;;;;;;;1.65;1.50;;;;;;;28.17;55.80;94480.63;4911279;29;20030;-76
2021/06/21 10:24:52;;;;;;;1.48;1.38;;;;;;;28.43;56.88;94486.31;4894572;29;20032;-73
2021/06/21 10:27:18;;;;;;;1.67;1.58;;;;;;;28.43;55.96;94486.31;4895950;29;20052;-74
2021/06/21 10:29:44;;;;;;;1.85;1.65;;;;;;;27.54;56.14;94485.56;4910385;29;20095;-74
2021/06/21 10:32:09;;;;;;;3.50;1.67;;;;;;;27.19;58.85;94481.50;4893606;29;20108;-74
2021/06/21 10:34:35;;;;;;;2.08;1.55;;;;;;;27.26;59.34;94486.44;4895190;29;20047;-75
2021/06/21 10:37:00;;;;;;;1.50;1.40;;;;;;;27.98;57.30;94487.03;4894122;29;20031;-75
2021/06/21 10:39:29;;;;;;;1.48;1.38;;;;;;;27.46;58.35;94478.22;4926489;29;20089;-75
2021/06/21 10:42:07;;;;;;;7.13;1.70;;;;;;;27.30;59.91;94476.03;4909537;29;20088;-74
2021/06/21 10:44:39;;;;;;;2.25;1.60;;;;;;;27.33;59.22;94475.44;4912429;29;20036;-77
2021/06/21 10:47:40;;;;;;;2.35;1.83;;;;;;;27.53;62.02;94481.31;4910582;29;20088;-74
2021/06/21 10:50:20;;;;;;;1.40;1.27;;;;;;;27.61;60.01;94488.66;4888629;29;20051;-74
2021/06/21 10:52:47;;;;;;;1.65;1.55;;;;;;;27.36;59.50;94491.63;4912319;29;20092;-75
2021/06/21 10:55:22;;;;;;;1.65;1.55;;;;;;;26.76;61.93;94492.34;4909146;29;20033;-75
2021/06/21 10:57:48;;;;;;;1.88;1.70;;;;;;;27.19;61.30;94488.69;4911960;29;20032;-74
2021/06/21 11:00:15;;;;;;;1.65;1.55;;;;;;;27.22;60.42;94485.44;4909878;29;20505;-73
2021/06/21 11:02:40;;;;;;;3.33;1.90;;;;;;;27.54;61.95;94482.91;4909514;29;20045;-73
2021/06/21 11:05:06;;;;;;;1.77;1.65;;;;;;;28.38;59.01;94478.41;4894495;29;20035;-75
2021/06/21 11:07:32;;;;;;;3.92;1.50;;;;;;;29.34;55.77;94471.28;4893613;29;20039;-76
2021/06/21 11:09:58;;;;;;;1.55;1.45;;;;;;;29.18;57.65;94469.97;4894667;29;20040;-72
2021/06/21 11:12:30;;;;;;;2.75;1.67;;;;;;;28.79;57.79;94470.50;4893478;29;20035;-78
2021/06/21 11:15:09;;;;;;;1.95;1.83;;;;;;;28.29;56.37;94463.41;4911392;29;20502;-75
2021/06/21 11:17:49;;;;;;;3.58;1.83;;;;;;;27.39;58.88;94466.34;4910645;29;20054;-75
2021/06/21 11:20:34;;;;;;;1.83;1.65;;;;;;;27.02;59.26;94465.22;4923719;29;20032;-75
2021/06/21 11:23:01;;;;;;;5.53;1.63;;;;;;;27.69;58.87;94452.59;4910811;29;20103;-75
2021/06/21 11:25:28;;;;;;;1.67;1.58;;;;;;;27.60;60.05;94463.13;4893225;29;20827;-75
2021/06/21 11:27:54;;;;;;;1.85;1.70;;;;;;;27.96;58.23;94462.59;4910615;29;20044;-75
2021/06/21 11:30:24;;;;;;;2.00;1.80;;;;;;;27.57;55.80;94468.22;4893613;29;20050;-74
2021/06/21 11:32:57;;;;;;;6.90;2.00;;;;;;;27.54;52.64;94450.19;4909367;29;20056;-74
2021/06/21 11:35:57;;;;;;;1.92;1.40;;;;;;;27.95;55.37;94445.81;4910177;29;20055;-75
2021/06/21 11:38:26;;;;;;;1.35;1.25;;;;;;;27.57;58.13;94445.06;4909799;29;20056;-77
2021/06/21 11:41:16;;;;;;;2.00;1.80;;;;;;;27.94;57.07;94446.09;4910009;29;20024;-74
2021/06/21 11:43:46;;;;;;;3.97;1.10;;;;;;;28.52;54.90;94444.56;4914584;29;20032;-78
2021/06/21 11:46:36;;;;;;;1.52;1.42;;;;;;;28.09;52.66;94428.03;4912640;29;20070;-75
2021/06/21 11:49:10;;;;;;;1.35;1.25;;;;;;;28.03;54.02;94420.38;4913808;29;20035;-79
2021/06/21 11:51:35;;;;;;;2.92;1.45;;;;;;;28.42;54.50;94430.63;4897558;29;20035;-74
2021/06/21 11:54:01;;;;;;;1.20;1.10;;;;;;;28.22;56.13;94429.13;4897886;29;20425;-75
2021/06/21 11:56:27;;;;;;;3.67;1.55;;;;;;;28.28;57.74;94422.63;4913833;29;20028;-80
2021/06/21 11:58:54;;;;;;;1.48;1.38;;;;;;;28.32;55.37;94422.84;4925770;29;20055;-71
2021/06/21 12:01:23;;;;;;;2.58;1.30;;;;;;;28.29;55.12;94412.78;4925905;29;20043;-74
2021/06/21 12:03:52;;;;;;;1.67;1.35;;;;;;;28.21;50.29;94411.56;4913429;29;20059;-76
2021/06/21 12:06:18;;;;;;;1.10;1.00;;;;;;;28.26;51.77;94414.91;4917282;29;20044;-79
2021/06/21 12:08:44;;;;;;;1.58;1.38;;;;;;;28.23;54.97;94409.38;4914991;29;20391;-80
2021/06/21 12:11:30;;;;;;;3.53;1.23;;;;;;;28.72;53.06;94414.88;4898142;29;20577;-77
2021/06/21 12:13:57;;;;;;;1.30;1.20;;;;;;;28.44;52.12;94410.59;4932477;29;20048;-75
2021/06/21 12:16:23;;;;;;;3.00;1.35;;;;;;;28.51;53.02;94410.97;4931072;29;20034;-76
2021/06/21 12:18:50;;;;;;;1.20;1.10;;;;;;;28.49;52.43;94412.38;4916758;29;20051;-76
2021/06/21 12:21:36;;;;;;;1.48;1.38;;;;;;;28.51;49.58;94415.56;4930941;29;20413;-76
2021/06/21 12:24:28;;;;;;;1.42;1.33;;;;;;;28.59;50.15;94415.63;4902258;29;20499;-74
2021/06/21 12:27:03;;;;;;;1.17;1.05;;;;;;;28.57;47.78;94415.16;4917954;29;20039;-75
2021/06/21 12:29:34;;;;;;;1.30;1.20;;;;;;;28.91;48.89;94416.63;4930250;29;20035;-75
2021/06/21 12:32:05;;;;;;;4.68;1.20;;;;;;;28.60;49.71;94413.78;4932535;29;20075;-75
2021/06/21 12:34:53;;;;;;;1.27;1.15;;;;;;;28.69;53.24;94418.13;4926137;29;20036;-76
2021/06/21 12:37:28;;;;;;;1.33;1.23;;;;;;;28.52;53.26;94415.22;4936752;29;20031;-77
2021/06/21 12:40:02;;;;;;;1.30;1.20;;;;;;;28.23;51.28;94420.84;4921037;29;20064;-72
2021/06/21 12:42:32;;;;;;;2.28;1.17;;;;;;;28.35;50.17;94406.25;4905311;29;20049;-75
2021/06/21 12:45:14;;;;;;;1.73;1.30;;;;;;;28.45;49.59;94406.84;4922754;29;20489;-75
2021/06/21 12:47:46;;;;;;;1.38;0.90;;;;;;;28.52;48.00;94412.56;4923752;29;20398;-76
2021/06/21 12:50:12;;;;;;;1.27;1.17;;;;;;;28.28;49.13;94406.66;4920554;29;20031;-75
2021/06/21 12:52:44;;;;;;;1.00;1.00;;;;;;;28.39;50.38;94418.69;4915488;29;20025;-77
2021/06/21 12:55:10;;;;;;;1.25;1.15;;;;;;;28.30;51.66;94409.78;4914178;29;20027;-73
2021/06/21 12:57:47;;;;;;;4.07;0.93;;;;;;;28.78;51.17;94411.03;4916316;29;20032;-73
2021/06/21 13:00:14;;;;;;;1.13;1.05;;;;;;;29.06;49.64;94405.66;4931180;29;20486;-74
2021/06/21 13:02:39;;;;;;;1.10;1.00;;;;;;;28.57;48.89;94401.03;4916042;29;20044;-74
2021/06/21 13:05:12;;;;;;;1.20;1.10;;;;;;;27.83;48.96;94394.09;4899061;29;20478;-74
2021/06/21 13:07:39;;;;;;;1.70;1.33;;;;;;;28.21;50.24;94404.38;4932039;29;20030;-74
2021/06/21 13:10:06;;;;;;;1.02;1.00;;;;;;;28.69;47.11;94401.34;4915920;29;20046;-74
2021/06/21 13:12:32;;;;;;;1.05;0.98;;;;;;;28.74;47.61;94403.91;4911335;29;20079;-76
2021/06/21 13:15:02;;;;;;;1.25;1.15;;;;;;;28.95;50.75;94404.28;4916112;29;20122;-77
2021/06/21 13:17:28;;;;;;;2.92;1.10;;;;;;;28.94;51.33;94392.81;4937514;28;20039;-75
2021/06/21 13:19:55;;;;;;;5.72;1.42;;;;;;;28.71;50.87;94393.84;4919651;29;20027;-75
2021/06/21 13:22:44;;;;;;;1.38;1.15;;;;;;;28.48;49.30;94390.25;4948781;29;20441;-74
2021/06/21 13:25:21;;;;;;;1.10;1.00;;;;;;;28.68;50.25;94391.75;4930335;29;20038;-74
2021/06/21 13:28:12;;;;;;;1.90;1.10;;;;;;;28.99;48.31;94400.75;4916342;29;20024;-76
2021/06/21 13:30:38;;;;;;;1.55;1.00;;;;;;;28.89;48.05;94395.63;4898483;29;20032;-73
2021/06/21 13:33:10;;;;;;;1.20;1.10;;;;;;;28.60;50.53;94387.09;4929011;29;20485;-75
2021/06/21 13:35:39;;;;;;;2.38;1.75;;;;;;;28.77;51.14;94395.31;4915042;29;20039;-74
2021/06/21 13:38:11;;;;;;;1.50;1.40;;;;;;;28.63;48.39;94384.63;4879634;29;20024;-74
2021/06/21 13:40:36;;;;;;;1.08;1.05;;;;;;;28.78;48.22;94380.91;4920952;29;20517;-74
2021/06/21 13:43:03;;;;;;;2.35;1.45;;;;;;;28.77;48.45;94385.44;4920268;29;20031;-74
2021/06/21 13:45:49;;;;;;;2.00;1.00;;;;;;;28.64;47.19;94380.88;4898682;29;20062;-75
2021/06/21 13:48:19;;;;;;;1.15;1.08;;;;;;;28.90;46.39;94375.06;4930890;29;20103;-75
2021/06/21 13:50:57;;;;;;;1.27;1.17;;;;;;;29.22;47.45;94378.31;4930063;29;20038;-74
2021/06/21 13:53:33;;;;;;;1.42;1.33;;;;;;;29.44;48.67;94371.47;4929946;29;20031;-74
2021/06/21 13:56:02;;;;;;;1.25;1.15;;;;;;;29.34;48.15;94366.38;4913729;29;20470;-74
2021/06/21 13:58:35;;;;;;;1.48;1.00;;;;;;;28.99;49.01;94360.72;4915203;29;20036;-76
2021/06/21 14:01:18;;;;;;;1.20;1.10;;;;;;;28.91;48.40;94369.41;4944672;29;20070;-74
2021/06/21 14:03:51;;;;;;;1.33;1.10;;;;;;;29.19;45.61;94367.47;4889693;29;20527;-75
2021/06/21 14:06:24;;;;;;;1.00;0.90;;;;;;;29.27;47.55;94358.78;4884814;29;20490;-75
2021/06/21 14:08:51;;;;;;;1.10;1.00;;;;;;;29.52;48.17;94374.22;4897155;29;20032;-74
2021/06/21 14:11:17;;;;;;;1.20;1.10;;;;;;;29.25;47.88;94371.66;4899351;29;20053;-75
2021/06/21 14:13:43;;;;;;;1.02;0.93;;;;;;;29.07;49.13;94370.66;4897261;29;20118;-74
2021/06/21 14:16:09;;;;;;;1.30;1.20;;;;;;;29.18;48.42;94371.25;4899444;29;20033;-77
2021/06/21 14:18:35;;;;;;;2.70;1.55;;;;;;;29.16;49.01;94370.72;4892958;29;20548;-73
2021/06/21 14:21:01;;;;;;;1.58;1.20;;;;;;;28.93;48.01;94361.88;4870973;29;20044;-75
2021/06/21 14:23:26;;;;;;;1.40;1.08;;;;;;;28.49;49.48;94364.38;4876444;29;20041;-72
2021/06/21 14:25:52;;;;;;;1.15;1.05;;;;;;;28.76;48.07;94365.22;4903053;29;20052;-74
2021/06/21 14:28:17;;;;;;;0.90;0.90;;;;;;;28.88;48.71;94363.88;4880257;29;20032;-76
2021/06/21 14:30:43;;;;;;;2.47;1.20;;;;;;;28.85;48.55;94357.28;4893429;29;20115;-74
2021/06/21 14:33:08;;;;;;;1.40;1.20;;;;;;;28.67;47.47;94356.31;4895782;29;20051;-74
2021/06/21 14:35:34;;;;;;;1.02;0.80;;;;;;;28.59;49.69;94356.97;4894135;29;20508;-75
2021/06/21 14:38:00;;;;;;;2.08;1.00;;;;;;;28.63;50.21;94362.50;4880648;29;20589;-74
2021/06/21 14:40:25;;;;;;;1.23;1.13;;;;;;;28.97;47.61;94362.88;4912545;29;20039;-75
2021/06/21 14:42:50;;;;;;;2.38;1.02;;;;;;;29.07;48.39;94370.66;4913404;29;20082;-74
2021/06/21 14:45:16;;;;;;;1.30;1.20;;;;;;;28.70;50.42;94371.72;4898582;29;20038;-74
2021/06/21 14:47:41;;;;;;;1.23;1.13;;;;;;;28.88;50.12;94375.34;4896735;29;20028;-74
2021/06/21 14:52:37;;;;;;;1.73;1.15;;;;;;;29.48;50.25;94370.56;4913512;29;20699;-74
2021/06/21 14:55:04;;;;;;;1.33;1.20;;;;;;;29.42;50.56;94369.09;4897586;29;20059;-72
2021/06/21 14:57:33;;;;;;;0.98;0.93;;;;;;;29.85;49.08;94363.31;4913017;29;20047;-75
2021/06/21 14:59:59;;;;;;;;;;;;;;;30.08;46.03;94356.84;4897665;29;20036;-75
2021/06/21 15:02:24;;;;;;;5.22;1.35;;;;;;;30.16;45.24;94356.06;4923703;29;19925;-75
2021/06/21 15:04:50;;;;;;;1.35;0.90;;;;;;;30.46;46.95;94344.59;4931388;29;20416;-74
2021/06/21 15:07:15;;;;;;;1.00;1.00;;;;;;;30.47;46.64;94350.72;4933034;29;20091;-73
2021/06/21 15:09:41;;;;;;;1.92;1.00;;;;;;;30.17;48.82;94358.44;4915215;29;20038;-76
2021/06/21 15:12:07;;;;;;;1.00;1.00;;;;;;;30.39;45.80;94346.91;4932894;29;20509;-82
2021/06/21 15:14:32;;;;;;;1.20;0.93;;;;;;;29.96;45.44;94345.94;4915746;29;20394;-74
2021/06/21 15:16:58;;;;;;;1.20;1.10;;;;;;;29.47;47.21;94352.19;4922224;29;20024;-74
2021/06/21 15:19:23;;;;;;;1.15;1.05;;;;;;;28.62;49.23;94342.25;4929742;29;20043;-75
2021/06/21 15:21:49;;;;;;;1.25;1.15;;;;;;;28.68;49.79;94341.09;4881459;29;20500;-76
2021/06/21 15:24:14;;;;;;;1.20;1.10;;;;;;;28.89;49.62;94336.13;4882395;29;20024;-77
2021/06/21 15:26:39;;;;;;;1.40;1.30;;;;;;;28.85;49.72;94335.16;4912441;29;20417;-75
2021/06/21 15:29:05;;;;;;;2.67;1.17;;;;;;;28.91;51.82;94337.41;4930187;29;20453;-74
2021/06/21 15:31:30;;;;;;;1.25;1.00;;;;;;;29.12;49.43;94330.50;4896361;29;20032;-75
2021/06/21 15:33:56;;;;;;;1.90;1.27;;;;;;;29.14;48.62;94331.03;4897771;29;20115;-74
2021/06/21 15:36:21;;;;;;;3.13;1.23;;;;;;;28.95;49.09;94342.94;4912642;29;20035;-74
2021/06/21 15:38:47;;;;;;;1.10;1.00;;;;;;;28.98;49.62;94337.00;4913126;29;20035;-73
2021/06/21 15:41:12;;;;;;;3.83;1.10;;;;;;;29.06;51.04;94342.41;4913052;29;20036;-75
2021/06/21 15:43:38;;;;;;;1.30;1.10;;;;;;;28.74;49.17;94339.91;4896626;29;20027;-75
2021/06/21 15:46:04;;;;;;;1.23;1.13;;;;;;;28.70;50.98;94341.59;4913444;29;20034;-74
2021/06/21 15:48:29;;;;;;;2.67;1.00;;;;;;;28.54;49.62;94346.44;4912227;29;20040;-74
2021/06/21 15:50:55;;;;;;;1.75;1.65;;;;;;;28.56;50.08;94338.13;4913306;29;20417;-74
2021/06/21 15:53:20;;;;;;;1.55;1.13;;;;;;;28.61;49.45;94341.47;4928852;29;20035;-74
2021/06/21 15:55:46;;;;;;;1.40;1.30;;;;;;;28.83;51.27;94340.78;4930677;29;20040;-75
2021/06/21 15:58:13;;;;;;;1.15;1.05;;;;;;;28.85;50.48;94341.28;4929751;29;20035;-75
2021/06/21 16:00:48;;;;;;;1.13;1.05;;;;;;;28.99;50.21;94343.91;4896580;29;20036;-75
2021/06/21 16:03:14;;;;;;;1.30;1.20;;;;;;;29.09;49.36;94346.38;4911384;29;20050;-76
2021/06/21 16:05:40;;;;;;;1.30;1.20;;;;;;;28.75;51.29;94350.28;4927668;29;20044;-73
2021/06/21 16:08:06;;;;;;;1.60;1.40;;;;;;;28.44;52.34;94346.63;4913290;29;20098;-74
2021/06/21 16:10:33;;;;;;;1.45;1.35;;;;;;;28.29;54.32;94346.16;4928756;29;20039;-73
2021/06/21 16:12:58;;;;;;;0.98;0.98;;;;;;;27.95;58.51;94343.81;4930802;29;20027;-74
2021/06/21 16:15:24;;;;;;;3.60;1.70;;;;;;;27.63;61.22;94342.75;4928233;29;20461;-74
2021/06/21 16:17:50;;;;;;;2.10;1.55;;;;;;;27.54;62.38;94349.03;4912878;29;20071;-75
2021/06/21 16:20:15;;;;;;;2.15;1.60;;;;;;;27.59;62.95;94352.41;4912807;29;20039;-75
2021/06/21 16:22:41;;;;;;;1.42;1.33;;;;;;;27.57;62.84;94359.09;4927623;29;20043;-76
2021/06/21 16:25:07;;;;;;;1.70;1.35;;;;;;;27.35;63.95;94369.53;4913212;29;20106;-75
2021/06/21 16:27:33;;;;;;;1.27;1.17;;;;;;;26.87;63.74;94367.03;4927986;29;20036;-74
2021/06/21 16:29:59;;;;;;;2.53;1.63;;;;;;;26.76;64.85;94370.84;4931747;29;20583;-75
2021/06/21 16:32:28;;;;;;;2.30;1.33;;;;;;;26.85;65.75;94365.72;4931039;29;20063;-74
2021/06/21 16:34:53;;;;;;;1.48;1.33;;;;;;;26.80;65.26;94371.06;4916100;29;20051;-75
2021/06/21 16:37:19;;;;;;;1.88;1.77;;;;;;;26.89;65.62;94380.81;4931846;29;20131;-75
2021/06/21 16:39:44;;;;;;;1.70;1.60;;;;;;;26.70;65.34;94377.31;4931124;29;20035;-76
2021/06/21 16:42:10;;;;;;;1.83;1.60;;;;;;;26.54;66.34;94373.25;4910196;29;20437;-75
2021/06/21 16:44:35;;;;;;;1.70;1.50;;;;;;;26.42;67.24;94375.53;4895805;29;20036;-75
2021/06/21 16:47:01;;;;;;;1.30;1.20;;;;;;;26.38;66.94;94382.47;4914569;29;20512;-75